sensor_id;sensor_type;location;lat;lon;timestamp;temperature;humidity
24452;DHT22;13350;50.984;5.822;2023-07-09T00:00:42;21.60;99.90
24452;DHT22;13350;50.984;5.822;2023-07-09T00:03:11;21.60;99.90
24452;DHT22;13350;50.984;5.822;2023-07-09T00:05:38;21.50;99.90
24452;DHT22;13350;50.984;5.822;2023-07-09T00:08:05;21.40;99.90
24452;DHT22;13350;50.984;5.822;2023-07-09T00:10:32;21.30;99.90
24452;DHT22;13350;50.984;5.822;2023-07-09T00:13:01;21.20;99.90
24452;DHT22;13350;50.984;5.822;2023-07-09T00:15:28;21.30;99.90
24452;DHT22;13350;50.984;5.822;2023-07-09T00:17:55;21.50;99.90
24452;DHT22;13350;50.984;5.822;2023-07-09T00:20:23;21.50;99.90
24452;DHT22;13350;50.984;5.822;2023-07-09T00:22:50;21.50;99.90
24452;DHT22;13350;50.984;5.822;2023-07-09T00:25:19;21.40;99.90
24452;DHT22;13350;50.984;5.822;2023-07-09T00:27:46;21.30;99.90
24452;DHT22;13350;50.984;5.822;2023-07-09T00:30:18;21.20;99.90
24452;DHT22;13350;50.984;5.822;2023-07-09T00:32:45;21.10;99.90
24452;DHT22;13350;50.984;5.822;2023-07-09T00:35:12;21.10;99.90
24452;DHT22;13350;50.984;5.822;2023-07-09T00:37:42;21.00;99.90
24452;DHT22;13350;50.984;5.822;2023-07-09T00:40:11;21.00;99.90
24452;DHT22;13350;50.984;5.822;2023-07-09T00:42:42;21.10;99.90
24452;DHT22;13350;50.984;5.822;2023-07-09T00:45:15;21.00;99.90
24452;DHT22;13350;50.984;5.822;2023-07-09T00:47:44;21.00;99.90
24452;DHT22;13350;50.984;5.822;2023-07-09T00:50:14;21.20;99.90
24452;DHT22;13350;50.984;5.822;2023-07-09T00:52:46;21.20;99.90
24452;DHT22;13350;50.984;5.822;2023-07-09T00:55:17;21.20;99.90
24452;DHT22;13350;50.984;5.822;2023-07-09T00:57:46;21.30;99.90
24452;DHT22;13350;50.984;5.822;2023-07-09T01:00:21;21.30;99.90
24452;DHT22;13350;50.984;5.822;2023-07-09T01:02:50;21.40;99.90
24452;DHT22;13350;50.984;5.822;2023-07-09T01:05:17;21.50;99.90
24452;DHT22;13350;50.984;5.822;2023-07-09T01:07:46;21.50;99.90
24452;DHT22;13350;50.984;5.822;2023-07-09T01:10:14;21.60;99.90
24452;DHT22;13350;50.984;5.822;2023-07-09T01:12:41;21.70;99.90
24452;DHT22;13350;50.984;5.822;2023-07-09T01:15:09;21.80;99.90
24452;DHT22;13350;50.984;5.822;2023-07-09T01:17:36;21.80;99.90
24452;DHT22;13350;50.984;5.822;2023-07-09T01:20:06;21.80;99.90
24452;DHT22;13350;50.984;5.822;2023-07-09T01:22:35;21.70;99.90
24452;DHT22;13350;50.984;5.822;2023-07-09T01:25:03;21.70;99.90
24452;DHT22;13350;50.984;5.822;2023-07-09T01:27:33;21.70;99.90
24452;DHT22;13350;50.984;5.822;2023-07-09T01:30:01;21.70;99.90
24452;DHT22;13350;50.984;5.822;2023-07-09T01:32:28;21.80;99.90
24452;DHT22;13350;50.984;5.822;2023-07-09T01:34:58;21.90;99.90
24452;DHT22;13350;50.984;5.822;2023-07-09T01:37:26;22.00;99.90
24452;DHT22;13350;50.984;5.822;2023-07-09T01:39:55;22.10;99.90
24452;DHT22;13350;50.984;5.822;2023-07-09T01:42:23;22.40;99.90
24452;DHT22;13350;50.984;5.822;2023-07-09T01:44:51;22.40;99.90
24452;DHT22;13350;50.984;5.822;2023-07-09T01:47:19;22.50;99.90
24452;DHT22;13350;50.984;5.822;2023-07-09T01:49:46;22.60;99.90
24452;DHT22;13350;50.984;5.822;2023-07-09T01:52:14;22.60;99.90
24452;DHT22;13350;50.984;5.822;2023-07-09T01:54:41;22.50;99.90
24452;DHT22;13350;50.984;5.822;2023-07-09T01:57:17;22.40;99.90
24452;DHT22;13350;50.984;5.822;2023-07-09T01:59:48;22.40;99.90
24452;DHT22;13350;50.984;5.822;2023-07-09T02:02:15;22.30;99.90
24452;DHT22;13350;50.984;5.822;2023-07-09T02:04:46;22.30;99.90
24452;DHT22;13350;50.984;5.822;2023-07-09T02:07:13;22.20;99.90
24452;DHT22;13350;50.984;5.822;2023-07-09T02:09:40;22.20;99.90
24452;DHT22;13350;50.984;5.822;2023-07-09T02:12:08;22.10;99.90
24452;DHT22;13350;50.984;5.822;2023-07-09T02:14:37;22.00;99.90
24452;DHT22;13350;50.984;5.822;2023-07-09T02:17:04;21.80;99.90
24452;DHT22;13350;50.984;5.822;2023-07-09T02:19:31;21.60;99.90
24452;DHT22;13350;50.984;5.822;2023-07-09T02:21:58;21.40;99.90
24452;DHT22;13350;50.984;5.822;2023-07-09T02:24:25;21.30;99.90
24452;DHT22;13350;50.984;5.822;2023-07-09T02:26:53;21.20;99.90
24452;DHT22;13350;50.984;5.822;2023-07-09T02:29:20;21.10;99.90
24452;DHT22;13350;50.984;5.822;2023-07-09T02:31:48;21.00;99.90
24452;DHT22;13350;50.984;5.822;2023-07-09T02:34:16;20.90;99.90
24452;DHT22;13350;50.984;5.822;2023-07-09T02:36:43;20.90;99.90
24452;DHT22;13350;50.984;5.822;2023-07-09T02:39:10;20.90;99.90
24452;DHT22;13350;50.984;5.822;2023-07-09T02:41:38;21.10;99.90
24452;DHT22;13350;50.984;5.822;2023-07-09T02:44:05;21.00;99.90
24452;DHT22;13350;50.984;5.822;2023-07-09T02:46:32;20.90;99.90
24452;DHT22;13350;50.984;5.822;2023-07-09T02:49:02;20.80;99.90
24452;DHT22;13350;50.984;5.822;2023-07-09T02:51:29;20.80;99.90
24452;DHT22;13350;50.984;5.822;2023-07-09T02:53:57;20.70;99.90
24452;DHT22;13350;50.984;5.822;2023-07-09T02:56:24;20.70;99.90
24452;DHT22;13350;50.984;5.822;2023-07-09T02:58:52;20.50;99.90
24452;DHT22;13350;50.984;5.822;2023-07-09T03:01:19;20.50;99.90
24452;DHT22;13350;50.984;5.822;2023-07-09T03:03:50;20.60;99.90
24452;DHT22;13350;50.984;5.822;2023-07-09T03:06:19;20.60;99.90
24452;DHT22;13350;50.984;5.822;2023-07-09T03:08:46;20.70;99.90
24452;DHT22;13350;50.984;5.822;2023-07-09T03:11:14;20.70;99.90
24452;DHT22;13350;50.984;5.822;2023-07-09T03:13:41;20.70;99.90
24452;DHT22;13350;50.984;5.822;2023-07-09T03:16:07;20.70;99.90
24452;DHT22;13350;50.984;5.822;2023-07-09T03:18:34;20.80;99.90
24452;DHT22;13350;50.984;5.822;2023-07-09T03:21:01;20.80;99.90
24452;DHT22;13350;50.984;5.822;2023-07-09T03:23:30;20.90;99.90
24452;DHT22;13350;50.984;5.822;2023-07-09T03:25:57;21.00;99.90
24452;DHT22;13350;50.984;5.822;2023-07-09T03:28:25;21.00;99.90
24452;DHT22;13350;50.984;5.822;2023-07-09T03:30:53;21.00;99.90
24452;DHT22;13350;50.984;5.822;2023-07-09T03:33:20;20.90;99.90
24452;DHT22;13350;50.984;5.822;2023-07-09T03:35:47;20.90;99.90
24452;DHT22;13350;50.984;5.822;2023-07-09T03:38:14;20.90;99.90
24452;DHT22;13350;50.984;5.822;2023-07-09T03:40:43;21.00;99.90
24452;DHT22;13350;50.984;5.822;2023-07-09T03:43:10;21.10;99.90
24452;DHT22;13350;50.984;5.822;2023-07-09T03:45:37;21.10;99.90
24452;DHT22;13350;50.984;5.822;2023-07-09T03:48:05;21.20;99.90
24452;DHT22;13350;50.984;5.822;2023-07-09T03:50:32;21.20;99.90
24452;DHT22;13350;50.984;5.822;2023-07-09T03:52:59;21.20;99.90
24452;DHT22;13350;50.984;5.822;2023-07-09T03:55:26;21.20;99.90
24452;DHT22;13350;50.984;5.822;2023-07-09T03:57:54;21.10;99.90
24452;DHT22;13350;50.984;5.822;2023-07-09T04:00:22;21.10;99.90
24452;DHT22;13350;50.984;5.822;2023-07-09T04:02:49;21.10;99.90
24452;DHT22;13350;50.984;5.822;2023-07-09T04:05:16;21.20;99.90
24452;DHT22;13350;50.984;5.822;2023-07-09T04:07:46;21.20;99.90
24452;DHT22;13350;50.984;5.822;2023-07-09T04:10:13;21.10;99.90
24452;DHT22;13350;50.984;5.822;2023-07-09T04:12:40;21.10;99.90
24452;DHT22;13350;50.984;5.822;2023-07-09T04:15:10;21.00;99.90
24452;DHT22;13350;50.984;5.822;2023-07-09T04:17:38;21.00;99.90
24452;DHT22;13350;50.984;5.822;2023-07-09T04:20:06;21.10;99.90
24452;DHT22;13350;50.984;5.822;2023-07-09T04:22:33;21.30;99.90
24452;DHT22;13350;50.984;5.822;2023-07-09T04:25:00;21.30;99.90
24452;DHT22;13350;50.984;5.822;2023-07-09T04:27:28;21.40;99.90
24452;DHT22;13350;50.984;5.822;2023-07-09T04:29:55;21.40;99.90
24452;DHT22;13350;50.984;5.822;2023-07-09T04:32:23;21.50;99.90
24452;DHT22;13350;50.984;5.822;2023-07-09T04:34:50;21.50;99.90
24452;DHT22;13350;50.984;5.822;2023-07-09T04:37:17;21.60;99.90
24452;DHT22;13350;50.984;5.822;2023-07-09T04:39:44;21.60;99.90
24452;DHT22;13350;50.984;5.822;2023-07-09T04:42:13;21.70;99.90
24452;DHT22;13350;50.984;5.822;2023-07-09T04:44:41;21.80;99.90
24452;DHT22;13350;50.984;5.822;2023-07-09T04:47:07;21.90;99.90
24452;DHT22;13350;50.984;5.822;2023-07-09T04:49:36;22.00;99.90
24452;DHT22;13350;50.984;5.822;2023-07-09T04:52:03;22.10;99.90
24452;DHT22;13350;50.984;5.822;2023-07-09T04:54:30;22.10;99.90
24452;DHT22;13350;50.984;5.822;2023-07-09T04:56:58;22.10;99.90
24452;DHT22;13350;50.984;5.822;2023-07-09T04:59:25;22.20;99.90
24452;DHT22;13350;50.984;5.822;2023-07-09T05:01:52;22.30;99.90
24452;DHT22;13350;50.984;5.822;2023-07-09T05:04:19;22.40;99.90
24452;DHT22;13350;50.984;5.822;2023-07-09T05:06:48;22.50;99.90
24452;DHT22;13350;50.984;5.822;2023-07-09T05:09:14;22.60;99.90
24452;DHT22;13350;50.984;5.822;2023-07-09T05:11:42;22.70;99.90
24452;DHT22;13350;50.984;5.822;2023-07-09T05:14:09;22.80;99.90
24452;DHT22;13350;50.984;5.822;2023-07-09T05:16:36;23.00;99.90
24452;DHT22;13350;50.984;5.822;2023-07-09T05:19:03;23.20;99.90
24452;DHT22;13350;50.984;5.822;2023-07-09T05:21:30;23.40;99.90
24452;DHT22;13350;50.984;5.822;2023-07-09T05:23:58;23.60;99.90
24452;DHT22;13350;50.984;5.822;2023-07-09T05:26:25;23.70;99.90
24452;DHT22;13350;50.984;5.822;2023-07-09T05:28:52;23.70;99.90
24452;DHT22;13350;50.984;5.822;2023-07-09T05:31:22;23.80;99.90
24452;DHT22;13350;50.984;5.822;2023-07-09T05:33:49;24.00;99.90
24452;DHT22;13350;50.984;5.822;2023-07-09T05:36:16;24.20;99.90
24452;DHT22;13350;50.984;5.822;2023-07-09T05:38:44;24.30;99.90
24452;DHT22;13350;50.984;5.822;2023-07-09T05:41:14;24.40;99.90
24452;DHT22;13350;50.984;5.822;2023-07-09T05:43:42;24.60;99.90
24452;DHT22;13350;50.984;5.822;2023-07-09T05:46:10;24.80;99.90
24452;DHT22;13350;50.984;5.822;2023-07-09T05:48:37;24.90;99.90
24452;DHT22;13350;50.984;5.822;2023-07-09T05:51:04;24.90;99.90
24452;DHT22;13350;50.984;5.822;2023-07-09T05:53:31;25.20;99.90
24452;DHT22;13350;50.984;5.822;2023-07-09T05:55:58;25.70;99.90
24452;DHT22;13350;50.984;5.822;2023-07-09T05:58:27;26.40;99.90
24452;DHT22;13350;50.984;5.822;2023-07-09T06:00:54;26.80;99.90
24452;DHT22;13350;50.984;5.822;2023-07-09T06:03:25;27.20;99.90
24452;DHT22;13350;50.984;5.822;2023-07-09T06:05:53;27.30;99.90
24452;DHT22;13350;50.984;5.822;2023-07-09T06:08:20;27.80;99.90
24452;DHT22;13350;50.984;5.822;2023-07-09T06:10:51;28.10;99.90
24452;DHT22;13350;50.984;5.822;2023-07-09T06:13:18;28.60;99.90
24452;DHT22;13350;50.984;5.822;2023-07-09T06:15:48;29.00;99.90
24452;DHT22;13350;50.984;5.822;2023-07-09T06:18:15;29.40;99.90
24452;DHT22;13350;50.984;5.822;2023-07-09T06:20:45;29.70;99.90
24452;DHT22;13350;50.984;5.822;2023-07-09T06:23:13;29.70;99.90
24452;DHT22;13350;50.984;5.822;2023-07-09T06:25:40;29.80;99.90
24452;DHT22;13350;50.984;5.822;2023-07-09T06:28:06;30.10;99.90
24452;DHT22;13350;50.984;5.822;2023-07-09T06:30:33;30.30;99.90
24452;DHT22;13350;50.984;5.822;2023-07-09T06:33:02;30.30;99.90
24452;DHT22;13350;50.984;5.822;2023-07-09T06:35:29;30.70;99.90
24452;DHT22;13350;50.984;5.822;2023-07-09T06:37:56;30.80;99.90
24452;DHT22;13350;50.984;5.822;2023-07-09T06:40:23;30.50;99.90
24452;DHT22;13350;50.984;5.822;2023-07-09T06:42:50;30.60;99.90
24452;DHT22;13350;50.984;5.822;2023-07-09T06:45:17;30.90;99.90
24452;DHT22;13350;50.984;5.822;2023-07-09T06:47:44;31.10;99.90
24452;DHT22;13350;50.984;5.822;2023-07-09T06:50:12;30.60;99.90
24452;DHT22;13350;50.984;5.822;2023-07-09T06:52:39;30.50;99.90
24452;DHT22;13350;50.984;5.822;2023-07-09T06:55:07;30.30;99.90
24452;DHT22;13350;50.984;5.822;2023-07-09T06:57:34;30.70;99.90
24452;DHT22;13350;50.984;5.822;2023-07-09T07:00:01;30.80;99.90
24452;DHT22;13350;50.984;5.822;2023-07-09T07:02:28;31.00;99.90
24452;DHT22;13350;50.984;5.822;2023-07-09T07:04:55;31.30;99.90
24452;DHT22;13350;50.984;5.822;2023-07-09T07:07:24;31.80;99.90
24452;DHT22;13350;50.984;5.822;2023-07-09T07:09:51;32.00;99.90
24452;DHT22;13350;50.984;5.822;2023-07-09T07:12:24;32.50;99.90
24452;DHT22;13350;50.984;5.822;2023-07-09T07:14:52;32.40;99.90
24452;DHT22;13350;50.984;5.822;2023-07-09T07:17:19;32.20;99.90
24452;DHT22;13350;50.984;5.822;2023-07-09T07:19:46;32.20;99.90
24452;DHT22;13350;50.984;5.822;2023-07-09T07:22:12;32.60;99.90
24452;DHT22;13350;50.984;5.822;2023-07-09T07:24:41;33.00;99.90
24452;DHT22;13350;50.984;5.822;2023-07-09T07:27:08;32.80;99.90
24452;DHT22;13350;50.984;5.822;2023-07-09T07:29:35;33.10;99.90
24452;DHT22;13350;50.984;5.822;2023-07-09T07:32:02;33.50;99.90
24452;DHT22;13350;50.984;5.822;2023-07-09T07:34:29;33.10;99.90
24452;DHT22;13350;50.984;5.822;2023-07-09T07:36:56;33.50;99.90
24452;DHT22;13350;50.984;5.822;2023-07-09T07:39:23;33.30;99.90
24452;DHT22;13350;50.984;5.822;2023-07-09T07:41:51;32.90;99.90
24452;DHT22;13350;50.984;5.822;2023-07-09T07:44:18;33.70;99.90
24452;DHT22;13350;50.984;5.822;2023-07-09T07:46:45;33.90;99.90
24452;DHT22;13350;50.984;5.822;2023-07-09T07:49:12;33.40;99.90
24452;DHT22;13350;50.984;5.822;2023-07-09T07:51:39;33.50;99.90
24452;DHT22;13350;50.984;5.822;2023-07-09T07:54:07;34.50;99.90
24452;DHT22;13350;50.984;5.822;2023-07-09T07:56:35;34.70;99.90
24452;DHT22;13350;50.984;5.822;2023-07-09T07:59:04;35.10;99.90
24452;DHT22;13350;50.984;5.822;2023-07-09T08:01:31;34.80;99.90
24452;DHT22;13350;50.984;5.822;2023-07-09T08:04:00;34.40;99.90
24452;DHT22;13350;50.984;5.822;2023-07-09T08:06:28;34.40;99.90
24452;DHT22;13350;50.984;5.822;2023-07-09T08:08:56;34.50;99.90
24452;DHT22;13350;50.984;5.822;2023-07-09T08:11:23;33.90;99.90
24452;DHT22;13350;50.984;5.822;2023-07-09T08:13:52;34.20;99.90
24452;DHT22;13350;50.984;5.822;2023-07-09T08:16:21;33.70;99.90
24452;DHT22;13350;50.984;5.822;2023-07-09T08:18:47;34.10;99.90
24452;DHT22;13350;50.984;5.822;2023-07-09T08:21:14;34.50;99.90
24452;DHT22;13350;50.984;5.822;2023-07-09T08:23:41;34.50;99.90
24452;DHT22;13350;50.984;5.822;2023-07-09T08:26:09;34.60;99.90
24452;DHT22;13350;50.984;5.822;2023-07-09T08:28:36;34.80;99.90
24452;DHT22;13350;50.984;5.822;2023-07-09T08:31:03;35.60;99.90
24452;DHT22;13350;50.984;5.822;2023-07-09T08:33:32;35.60;98.90
24452;DHT22;13350;50.984;5.822;2023-07-09T08:35:59;35.20;99.60
24452;DHT22;13350;50.984;5.822;2023-07-09T08:38:26;35.40;99.80
24452;DHT22;13350;50.984;5.822;2023-07-09T08:40:55;35.30;99.00
24452;DHT22;13350;50.984;5.822;2023-07-09T08:43:26;35.90;97.30
24452;DHT22;13350;50.984;5.822;2023-07-09T08:45:56;35.80;97.90
24452;DHT22;13350;50.984;5.822;2023-07-09T08:48:26;35.50;97.60
24452;DHT22;13350;50.984;5.822;2023-07-09T08:50:57;35.90;97.50
24452;DHT22;13350;50.984;5.822;2023-07-09T08:53:28;36.30;95.90
24452;DHT22;13350;50.984;5.822;2023-07-09T08:55:58;36.50;96.20
24452;DHT22;13350;50.984;5.822;2023-07-09T08:58:26;36.50;95.10
24452;DHT22;13350;50.984;5.822;2023-07-09T09:00:55;36.40;95.10
24452;DHT22;13350;50.984;5.822;2023-07-09T09:03:35;36.30;93.50
24452;DHT22;13350;50.984;5.822;2023-07-09T09:06:11;36.40;94.20
24452;DHT22;13350;50.984;5.822;2023-07-09T09:08:40;37.10;94.20
24452;DHT22;13350;50.984;5.822;2023-07-09T09:11:10;37.00;92.30
24452;DHT22;13350;50.984;5.822;2023-07-09T09:13:40;37.30;93.10
24452;DHT22;13350;50.984;5.822;2023-07-09T09:16:10;37.50;93.00
24452;DHT22;13350;50.984;5.822;2023-07-09T09:18:41;37.80;92.50
24452;DHT22;13350;50.984;5.822;2023-07-09T09:21:12;38.10;92.70
24452;DHT22;13350;50.984;5.822;2023-07-09T09:23:43;37.50;92.10
24452;DHT22;13350;50.984;5.822;2023-07-09T09:26:14;37.40;92.80
24452;DHT22;13350;50.984;5.822;2023-07-09T09:28:43;37.50;91.80
24452;DHT22;13350;50.984;5.822;2023-07-09T09:31:10;37.80;92.20
24452;DHT22;13350;50.984;5.822;2023-07-09T09:33:39;37.80;91.60
24452;DHT22;13350;50.984;5.822;2023-07-09T09:36:14;38.80;87.90
24452;DHT22;13350;50.984;5.822;2023-07-09T09:38:41;39.30;89.70
24452;DHT22;13350;50.984;5.822;2023-07-09T09:41:12;39.70;84.80
24452;DHT22;13350;50.984;5.822;2023-07-09T09:43:41;39.20;85.40
24452;DHT22;13350;50.984;5.822;2023-07-09T09:46:09;38.30;85.00
24452;DHT22;13350;50.984;5.822;2023-07-09T09:48:36;38.50;84.90
24452;DHT22;13350;50.984;5.822;2023-07-09T09:51:04;38.70;82.10
24452;DHT22;13350;50.984;5.822;2023-07-09T09:53:37;38.90;83.40
24452;DHT22;13350;50.984;5.822;2023-07-09T09:56:04;39.50;80.50
24452;DHT22;13350;50.984;5.822;2023-07-09T09:58:32;40.00;79.10
24452;DHT22;13350;50.984;5.822;2023-07-09T10:00:59;39.90;80.10
24452;DHT22;13350;50.984;5.822;2023-07-09T10:03:33;40.00;78.60
24452;DHT22;13350;50.984;5.822;2023-07-09T10:06:02;40.70;75.70
24452;DHT22;13350;50.984;5.822;2023-07-09T10:08:35;40.90;74.70
24452;DHT22;13350;50.984;5.822;2023-07-09T10:11:08;40.50;74.80
24452;DHT22;13350;50.984;5.822;2023-07-09T10:13:39;40.10;73.10
24452;DHT22;13350;50.984;5.822;2023-07-09T10:16:08;39.40;74.20
24452;DHT22;13350;50.984;5.822;2023-07-09T10:18:43;39.50;80.50
24452;DHT22;13350;50.984;5.822;2023-07-09T10:21:14;39.00;78.30
24452;DHT22;13350;50.984;5.822;2023-07-09T10:23:45;39.50;73.30
24452;DHT22;13350;50.984;5.822;2023-07-09T10:26:17;40.20;75.70
24452;DHT22;13350;50.984;5.822;2023-07-09T10:28:54;40.30;70.90
24452;DHT22;13350;50.984;5.822;2023-07-09T10:31:25;41.30;71.30
24452;DHT22;13350;50.984;5.822;2023-07-09T10:34:00;40.70;70.20
24452;DHT22;13350;50.984;5.822;2023-07-09T10:36:35;40.70;70.00
24452;DHT22;13350;50.984;5.822;2023-07-09T10:39:05;40.50;69.60
24452;DHT22;13350;50.984;5.822;2023-07-09T10:41:35;39.60;69.70
24452;DHT22;13350;50.984;5.822;2023-07-09T10:44:04;39.30;71.10
24452;DHT22;13350;50.984;5.822;2023-07-09T10:46:35;39.60;69.80
24452;DHT22;13350;50.984;5.822;2023-07-09T10:49:03;40.10;70.70
24452;DHT22;13350;50.984;5.822;2023-07-09T10:51:33;40.70;71.70
24452;DHT22;13350;50.984;5.822;2023-07-09T10:54:04;40.40;68.40
24452;DHT22;13350;50.984;5.822;2023-07-09T10:56:35;39.90;74.00
24452;DHT22;13350;50.984;5.822;2023-07-09T10:59:03;40.50;74.20
24452;DHT22;13350;50.984;5.822;2023-07-09T11:01:32;40.60;63.70
24452;DHT22;13350;50.984;5.822;2023-07-09T11:04:01;40.00;64.50
24452;DHT22;13350;50.984;5.822;2023-07-09T11:06:31;39.80;66.30
24452;DHT22;13350;50.984;5.822;2023-07-09T11:08:59;40.30;65.00
24452;DHT22;13350;50.984;5.822;2023-07-09T11:11:29;39.90;64.50
24452;DHT22;13350;50.984;5.822;2023-07-09T11:13:59;40.00;65.10
24452;DHT22;13350;50.984;5.822;2023-07-09T11:16:28;38.80;68.90
24452;DHT22;13350;50.984;5.822;2023-07-09T11:18:57;38.70;68.70
24452;DHT22;13350;50.984;5.822;2023-07-09T11:21:25;38.50;69.80
24452;DHT22;13350;50.984;5.822;2023-07-09T11:23:53;38.50;68.90
24452;DHT22;13350;50.984;5.822;2023-07-09T11:26:24;38.90;68.80
24452;DHT22;13350;50.984;5.822;2023-07-09T11:28:52;38.80;69.20
24452;DHT22;13350;50.984;5.822;2023-07-09T11:31:25;37.90;68.30
24452;DHT22;13350;50.984;5.822;2023-07-09T11:34:02;38.20;67.70
24452;DHT22;13350;50.984;5.822;2023-07-09T11:36:29;38.60;69.70
24452;DHT22;13350;50.984;5.822;2023-07-09T11:38:57;38.40;66.80
24452;DHT22;13350;50.984;5.822;2023-07-09T11:41:28;38.80;66.40
24452;DHT22;13350;50.984;5.822;2023-07-09T11:44:04;39.10;66.70
24452;DHT22;13350;50.984;5.822;2023-07-09T11:46:33;38.70;66.40
24452;DHT22;13350;50.984;5.822;2023-07-09T11:49:01;38.10;66.20
24452;DHT22;13350;50.984;5.822;2023-07-09T11:51:32;37.90;66.60
24452;DHT22;13350;50.984;5.822;2023-07-09T11:54:01;37.70;67.80
24452;DHT22;13350;50.984;5.822;2023-07-09T11:56:28;37.70;68.50
24452;DHT22;13350;50.984;5.822;2023-07-09T11:58:57;37.70;68.40
24452;DHT22;13350;50.984;5.822;2023-07-09T12:01:25;37.80;69.90
24452;DHT22;13350;50.984;5.822;2023-07-09T12:03:55;37.50;68.60
24452;DHT22;13350;50.984;5.822;2023-07-09T12:06:23;37.70;70.10
24452;DHT22;13350;50.984;5.822;2023-07-09T12:08:51;37.60;68.90
24452;DHT22;13350;50.984;5.822;2023-07-09T12:11:19;38.00;68.70
24452;DHT22;13350;50.984;5.822;2023-07-09T12:13:46;37.50;69.30
24452;DHT22;13350;50.984;5.822;2023-07-09T12:16:20;36.60;69.40
24452;DHT22;13350;50.984;5.822;2023-07-09T12:18:47;36.00;72.30
24452;DHT22;13350;50.984;5.822;2023-07-09T12:21:16;36.10;73.60
24452;DHT22;13350;50.984;5.822;2023-07-09T12:23:43;35.90;74.80
24452;DHT22;13350;50.984;5.822;2023-07-09T12:26:10;35.40;74.00
24452;DHT22;13350;50.984;5.822;2023-07-09T12:28:38;35.20;77.20
24452;DHT22;13350;50.984;5.822;2023-07-09T12:31:10;34.50;77.20
24452;DHT22;13350;50.984;5.822;2023-07-09T12:33:46;33.90;79.00
24452;DHT22;13350;50.984;5.822;2023-07-09T12:36:13;33.60;81.90
24452;DHT22;13350;50.984;5.822;2023-07-09T12:38:42;33.20;83.80
24452;DHT22;13350;50.984;5.822;2023-07-09T12:41:19;32.70;84.80
24452;DHT22;13350;50.984;5.822;2023-07-09T12:43:47;32.50;86.30
24452;DHT22;13350;50.984;5.822;2023-07-09T12:46:15;32.20;87.90
24452;DHT22;13350;50.984;5.822;2023-07-09T12:48:42;32.00;90.80
24452;DHT22;13350;50.984;5.822;2023-07-09T12:51:13;31.60;93.20
24452;DHT22;13350;50.984;5.822;2023-07-09T12:53:43;31.20;95.60
24452;DHT22;13350;50.984;5.822;2023-07-09T12:56:11;30.80;98.30
24452;DHT22;13350;50.984;5.822;2023-07-09T12:58:39;30.30;99.90
24452;DHT22;13350;50.984;5.822;2023-07-09T13:01:07;29.90;99.90
24452;DHT22;13350;50.984;5.822;2023-07-09T13:03:34;29.20;99.90
24452;DHT22;13350;50.984;5.822;2023-07-09T13:06:03;28.40;99.90
24452;DHT22;13350;50.984;5.822;2023-07-09T13:08:30;27.70;99.90
24452;DHT22;13350;50.984;5.822;2023-07-09T13:10:59;26.60;99.90
24452;DHT22;13350;50.984;5.822;2023-07-09T13:13:26;25.40;99.90
24452;DHT22;13350;50.984;5.822;2023-07-09T13:15:55;24.50;99.90
24452;DHT22;13350;50.984;5.822;2023-07-09T13:18:24;24.10;99.90
24452;DHT22;13350;50.984;5.822;2023-07-09T13:20:52;23.90;99.90
24452;DHT22;13350;50.984;5.822;2023-07-09T13:23:20;23.90;99.90
24452;DHT22;13350;50.984;5.822;2023-07-09T13:25:48;23.80;99.90
24452;DHT22;13350;50.984;5.822;2023-07-09T13:28:17;23.50;99.90
24452;DHT22;13350;50.984;5.822;2023-07-09T13:30:46;23.30;99.90
24452;DHT22;13350;50.984;5.822;2023-07-09T13:33:13;23.10;99.90
24452;DHT22;13350;50.984;5.822;2023-07-09T13:35:40;22.90;99.90
24452;DHT22;13350;50.984;5.822;2023-07-09T13:38:14;22.70;99.90
24452;DHT22;13350;50.984;5.822;2023-07-09T13:40:41;21.90;99.90
24452;DHT22;13350;50.984;5.822;2023-07-09T13:43:12;21.30;99.90
24452;DHT22;13350;50.984;5.822;2023-07-09T13:45:41;21.50;99.90
24452;DHT22;13350;50.984;5.822;2023-07-09T13:48:12;21.80;99.90
24452;DHT22;13350;50.984;5.822;2023-07-09T13:50:39;22.00;99.90
24452;DHT22;13350;50.984;5.822;2023-07-09T13:53:09;22.20;99.90
24452;DHT22;13350;50.984;5.822;2023-07-09T13:55:37;22.80;99.90
24452;DHT22;13350;50.984;5.822;2023-07-09T13:58:04;23.40;99.90
24452;DHT22;13350;50.984;5.822;2023-07-09T14:00:31;23.60;99.90
24452;DHT22;13350;50.984;5.822;2023-07-09T14:02:59;23.60;99.90
24452;DHT22;13350;50.984;5.822;2023-07-09T14:05:26;23.80;99.90
24452;DHT22;13350;50.984;5.822;2023-07-09T14:07:53;23.80;99.90
24452;DHT22;13350;50.984;5.822;2023-07-09T14:10:20;24.10;99.90
24452;DHT22;13350;50.984;5.822;2023-07-09T14:12:47;24.30;99.90
24452;DHT22;13350;50.984;5.822;2023-07-09T14:15:15;24.30;99.90
24452;DHT22;13350;50.984;5.822;2023-07-09T14:17:42;24.30;99.90
24452;DHT22;13350;50.984;5.822;2023-07-09T14:20:12;24.20;99.90
24452;DHT22;13350;50.984;5.822;2023-07-09T14:22:40;24.10;99.90
24452;DHT22;13350;50.984;5.822;2023-07-09T14:25:09;23.90;99.90
24452;DHT22;13350;50.984;5.822;2023-07-09T14:27:39;23.90;99.90
24452;DHT22;13350;50.984;5.822;2023-07-09T14:30:08;24.00;99.90
24452;DHT22;13350;50.984;5.822;2023-07-09T14:32:36;24.30;99.90
24452;DHT22;13350;50.984;5.822;2023-07-09T14:35:10;24.60;99.90
24452;DHT22;13350;50.984;5.822;2023-07-09T14:37:38;24.80;99.90
24452;DHT22;13350;50.984;5.822;2023-07-09T14:40:05;25.10;99.90
24452;DHT22;13350;50.984;5.822;2023-07-09T14:42:33;25.00;99.90
24452;DHT22;13350;50.984;5.822;2023-07-09T14:45:00;24.80;99.90
24452;DHT22;13350;50.984;5.822;2023-07-09T14:47:28;24.70;99.90
24452;DHT22;13350;50.984;5.822;2023-07-09T14:49:55;24.70;99.90
24452;DHT22;13350;50.984;5.822;2023-07-09T14:52:22;24.80;99.90
24452;DHT22;13350;50.984;5.822;2023-07-09T14:54:51;24.90;99.90
24452;DHT22;13350;50.984;5.822;2023-07-09T14:57:19;24.90;99.90
24452;DHT22;13350;50.984;5.822;2023-07-09T14:59:46;24.90;99.90
24452;DHT22;13350;50.984;5.822;2023-07-09T15:04:58;25.10;99.90
24452;DHT22;13350;50.984;5.822;2023-07-09T15:07:25;25.20;99.90
24452;DHT22;13350;50.984;5.822;2023-07-09T15:09:57;25.20;99.90
24452;DHT22;13350;50.984;5.822;2023-07-09T15:12:25;25.20;99.90
24452;DHT22;13350;50.984;5.822;2023-07-09T15:14:55;25.40;99.90
24452;DHT22;13350;50.984;5.822;2023-07-09T15:17:23;25.60;99.90
24452;DHT22;13350;50.984;5.822;2023-07-09T15:19:50;25.70;99.90
24452;DHT22;13350;50.984;5.822;2023-07-09T15:22:19;26.20;99.90
24452;DHT22;13350;50.984;5.822;2023-07-09T15:24:49;26.50;99.90
24452;DHT22;13350;50.984;5.822;2023-07-09T15:27:18;26.70;99.90
24452;DHT22;13350;50.984;5.822;2023-07-09T15:29:45;26.70;99.90
24452;DHT22;13350;50.984;5.822;2023-07-09T15:32:12;27.30;99.90
24452;DHT22;13350;50.984;5.822;2023-07-09T15:34:39;27.60;99.90
24452;DHT22;13350;50.984;5.822;2023-07-09T15:37:09;27.70;99.90
24452;DHT22;13350;50.984;5.822;2023-07-09T15:39:38;28.20;99.90